createdAt,value
2022-09-07T00:00:24.080Z,16.68
2022-09-07T00:02:50.730Z,16.66
2022-09-07T00:05:17.197Z,16.64
2022-09-07T00:07:43.611Z,16.62
2022-09-07T00:10:10.089Z,16.61
2022-09-07T00:12:36.621Z,16.62
2022-09-07T00:15:08.118Z,16.61
2022-09-07T00:17:34.526Z,16.60
2022-09-07T00:20:01.311Z,16.60
2022-09-07T00:22:27.830Z,16.59
2022-09-07T00:24:54.240Z,16.59
2022-09-07T00:27:20.646Z,16.59
2022-09-07T00:29:47.320Z,16.58
2022-09-07T00:32:13.730Z,16.57
2022-09-07T00:34:40.174Z,16.58
2022-09-07T00:37:06.595Z,16.58
2022-09-07T00:39:33.894Z,16.56
2022-09-07T00:42:01.035Z,16.55
2022-09-07T00:44:42.767Z,16.54
2022-09-07T00:47:45.478Z,16.52
2022-09-07T00:50:18.980Z,16.51
2022-09-07T00:52:50.332Z,16.52
2022-09-07T00:55:17.861Z,16.50
2022-09-07T00:57:47.672Z,16.50
2022-09-07T01:00:14.449Z,16.48
2022-09-07T01:02:41.454Z,16.46
2022-09-07T01:05:17.156Z,16.47
2022-09-07T01:07:44.436Z,16.50
2022-09-07T01:10:11.470Z,16.52
2022-09-07T01:12:37.936Z,16.55
2022-09-07T01:15:04.980Z,16.56
2022-09-07T01:18:11.870Z,16.56
2022-09-07T01:20:52.767Z,16.55
2022-09-07T01:23:34.443Z,16.59
2022-09-07T01:26:22.205Z,16.58
2022-09-07T01:28:58.518Z,16.63
2022-09-07T01:31:32.720Z,16.63
2022-09-07T01:34:14.728Z,16.59
2022-09-07T01:37:09.196Z,16.58
2022-09-07T01:40:00.585Z,16.60
2022-09-07T01:42:38.463Z,16.58
2022-09-07T01:45:11.319Z,16.62
2022-09-07T01:47:43.812Z,16.61
2022-09-07T01:50:18.812Z,16.59
2022-09-07T01:53:00.225Z,16.58
2022-09-07T01:55:40.641Z,16.61
2022-09-07T01:58:32.023Z,16.58
2022-09-07T02:01:05.279Z,16.55
2022-09-07T02:03:39.472Z,16.53
2022-09-07T02:06:12.005Z,16.51
2022-09-07T02:08:49.461Z,16.50
2022-09-07T02:11:25.544Z,16.47
2022-09-07T02:14:00.555Z,16.45
2022-09-07T02:16:29.647Z,16.44
2022-09-07T02:19:01.102Z,16.42
2022-09-07T02:21:38.172Z,16.45
2022-09-07T02:24:09.663Z,16.43
2022-09-07T02:26:39.595Z,16.42
2022-09-07T02:29:06.743Z,16.40
2022-09-07T02:31:33.500Z,16.38
2022-09-07T02:34:01.927Z,16.37
2022-09-07T02:36:33.366Z,16.37
2022-09-07T02:38:59.823Z,16.36
2022-09-07T02:41:38.622Z,16.34
2022-09-07T02:44:14.068Z,16.33
2022-09-07T02:46:58.619Z,16.29
2022-09-07T02:49:58.437Z,16.29
2022-09-07T02:52:44.212Z,16.29
2022-09-07T02:55:42.978Z,16.27
2022-09-07T02:58:34.000Z,16.28
2022-09-07T03:01:21.525Z,16.29
2022-09-07T03:04:16.563Z,16.31
2022-09-07T03:07:00.337Z,16.33
2022-09-07T03:09:34.988Z,16.34
2022-09-07T03:12:05.363Z,16.37
2022-09-07T03:14:33.629Z,16.38
2022-09-07T03:17:00.479Z,16.38
2022-09-07T03:19:27.531Z,16.40
2022-09-07T03:21:54.063Z,16.42
2022-09-07T03:24:20.493Z,16.45
2022-09-07T03:26:51.657Z,16.44
2022-09-07T03:29:19.228Z,16.42
2022-09-07T03:31:46.357Z,16.42
2022-09-07T03:34:12.979Z,16.43
2022-09-07T03:36:39.527Z,16.43
2022-09-07T03:39:07.287Z,16.42
2022-09-07T03:41:34.399Z,16.42
2022-09-07T03:44:07.839Z,16.40
2022-09-07T03:46:34.561Z,16.38
2022-09-07T03:49:01.084Z,16.37
2022-09-07T03:51:27.594Z,16.34
2022-09-07T03:53:54.733Z,16.31
2022-09-07T03:56:23.144Z,16.27
2022-09-07T03:58:50.627Z,16.27
2022-09-07T04:01:19.968Z,16.26
2022-09-07T04:03:47.997Z,16.27
2022-09-07T04:06:16.084Z,16.27
2022-09-07T04:08:44.396Z,16.28
2022-09-07T04:11:13.843Z,16.27
2022-09-07T04:13:41.475Z,16.25
2022-09-07T04:16:16.874Z,16.24
2022-09-07T04:18:43.624Z,16.18
2022-09-07T04:21:10.878Z,16.13
2022-09-07T04:23:42.050Z,16.11
2022-09-07T04:26:17.428Z,16.10
2022-09-07T04:28:44.764Z,16.05
2022-09-07T04:31:11.781Z,16.02
2022-09-07T04:33:38.309Z,16.01
2022-09-07T04:36:05.187Z,16.00
2022-09-07T04:38:31.789Z,15.98
2022-09-07T04:41:02.315Z,15.94
2022-09-07T04:43:29.671Z,15.92
2022-09-07T04:45:56.270Z,15.89
2022-09-07T04:48:22.881Z,15.90
2022-09-07T04:50:49.612Z,15.87
2022-09-07T04:53:16.035Z,15.86
2022-09-07T04:55:42.524Z,15.88
2022-09-07T04:58:08.956Z,15.88
2022-09-07T05:00:35.722Z,15.88
2022-09-07T05:03:02.164Z,15.90
2022-09-07T05:05:28.584Z,15.88
2022-09-07T05:07:54.969Z,15.89
2022-09-07T05:10:21.684Z,15.89
2022-09-07T05:12:48.290Z,15.87
2022-09-07T05:15:14.852Z,15.84
2022-09-07T05:17:41.272Z,15.85
2022-09-07T05:20:07.947Z,15.84
2022-09-07T05:22:35.547Z,15.85
2022-09-07T05:25:02.231Z,15.84
2022-09-07T05:27:28.644Z,15.83
2022-09-07T05:32:24.884Z,15.82
2022-09-07T05:34:53.046Z,15.82
2022-09-07T05:37:19.697Z,15.82
2022-09-07T05:39:46.180Z,15.82
2022-09-07T05:42:12.664Z,15.84
2022-09-07T05:44:46.471Z,15.85
2022-09-07T05:47:13.172Z,15.86
2022-09-07T05:49:39.756Z,15.87
2022-09-07T05:52:06.779Z,15.89
2022-09-07T05:54:33.238Z,15.93
2022-09-07T05:56:59.669Z,15.96
2022-09-07T05:59:26.081Z,16.37
2022-09-07T06:01:52.579Z,16.77
2022-09-07T06:04:19.487Z,16.62
2022-09-07T06:07:04.648Z,16.37
2022-09-07T06:09:32.472Z,16.19
2022-09-07T06:11:58.966Z,16.12
2022-09-07T06:14:25.403Z,16.11
2022-09-07T06:16:51.964Z,16.09
2022-09-07T06:19:18.431Z,16.09
2022-09-07T06:21:44.861Z,16.07
2022-09-07T06:24:11.328Z,16.07
2022-09-07T06:26:37.771Z,16.05
2022-09-07T06:29:04.271Z,16.03
2022-09-07T06:31:30.895Z,16.07
2022-09-07T06:33:58.724Z,16.18
2022-09-07T06:36:27.731Z,16.22
2022-09-07T06:38:56.088Z,16.20
2022-09-07T06:44:19.362Z,16.31
2022-09-07T06:49:32.219Z,16.73
2022-09-07T06:51:58.902Z,17.03
2022-09-07T06:57:11.791Z,17.38
2022-09-07T06:59:38.540Z,17.45
2022-09-07T07:02:06.871Z,17.43
2022-09-07T07:04:39.524Z,17.48
2022-09-07T07:07:10.666Z,17.58
2022-09-07T07:09:37.405Z,17.72
2022-09-07T07:12:03.959Z,17.79
2022-09-07T07:14:33.772Z,17.93
2022-09-07T07:17:01.428Z,18.04
2022-09-07T07:19:28.447Z,18.15
2022-09-07T07:22:14.451Z,18.12
2022-09-07T07:24:41.247Z,18.10
2022-09-07T07:27:07.698Z,18.30
2022-09-07T07:29:34.140Z,18.47
2022-09-07T07:32:00.903Z,18.57
2022-09-07T07:34:48.088Z,18.67
2022-09-07T07:37:33.643Z,18.89
2022-09-07T07:40:16.940Z,19.06
2022-09-07T07:42:45.548Z,19.03
2022-09-07T07:47:59.762Z,18.86
2022-09-07T07:50:34.162Z,18.86
2022-09-07T07:55:47.608Z,18.89
2022-09-07T07:58:14.004Z,19.16
2022-09-07T08:00:53.897Z,19.26
2022-09-07T08:03:22.326Z,19.31
2022-09-07T08:05:48.723Z,19.39
2022-09-07T08:08:15.495Z,19.42
2022-09-07T08:10:42.135Z,19.48
2022-09-07T08:13:08.525Z,19.38
2022-09-07T08:15:41.181Z,19.26
2022-09-07T08:18:07.596Z,19.26
2022-09-07T08:20:34.047Z,19.47
2022-09-07T08:23:00.404Z,19.73
2022-09-07T08:25:28.370Z,20.02
2022-09-07T08:27:54.770Z,20.09
2022-09-07T08:30:22.223Z,19.99
2022-09-07T08:32:48.623Z,20.13
2022-09-07T08:35:15.023Z,20.33
2022-09-07T08:37:41.447Z,20.81
2022-09-07T08:40:10.411Z,21.27
2022-09-07T08:42:45.596Z,21.61
2022-09-07T08:45:20.756Z,21.80
2022-09-07T08:47:52.216Z,21.82
2022-09-07T08:50:21.884Z,21.94
2022-09-07T08:52:58.551Z,22.01
2022-09-07T08:55:31.573Z,22.05
2022-09-07T08:58:27.070Z,22.21
2022-09-07T09:06:44.067Z,22.36
2022-09-07T09:09:25.550Z,22.23
2022-09-07T09:12:01.424Z,22.14
2022-09-07T09:15:10.329Z,22.00
2022-09-07T09:18:05.608Z,22.27
2022-09-07T09:20:51.835Z,22.67
2022-09-07T09:23:20.036Z,22.64
2022-09-07T09:25:53.556Z,22.06
2022-09-07T09:28:20.367Z,22.02
2022-09-07T09:30:50.183Z,22.21
2022-09-07T09:33:28.802Z,22.25
2022-09-07T09:35:59.636Z,22.45
2022-09-07T09:38:28.634Z,22.89
2022-09-07T09:40:56.958Z,23.27
2022-09-07T09:43:32.861Z,23.31
2022-09-07T09:46:16.920Z,23.22
2022-09-07T09:48:43.508Z,23.00
2022-09-07T09:54:06.127Z,23.14
2022-09-07T09:56:41.621Z,23.51
2022-09-07T10:05:39.182Z,23.88
2022-09-07T10:08:25.710Z,23.96
2022-09-07T10:10:59.589Z,24.01
2022-09-07T10:13:31.691Z,23.80
2022-09-07T10:16:01.158Z,23.90
2022-09-07T10:18:59.693Z,23.97
2022-09-07T10:21:28.981Z,23.84
2022-09-07T10:24:12.656Z,23.95
2022-09-07T10:26:40.471Z,24.13
2022-09-07T10:29:13.579Z,24.13
2022-09-07T10:31:45.949Z,24.32
2022-09-07T10:34:41.619Z,24.28
2022-09-07T10:37:11.356Z,24.38
2022-09-07T10:39:42.457Z,24.63
2022-09-07T10:42:08.983Z,24.77
2022-09-07T10:45:10.981Z,24.89
2022-09-07T10:47:37.404Z,24.55
2022-09-07T10:50:27.158Z,24.36
2022-09-07T10:53:39.379Z,24.15
2022-09-07T10:56:08.979Z,23.88
2022-09-07T11:01:57.295Z,23.51
2022-09-07T11:04:26.777Z,23.76
2022-09-07T11:07:04.117Z,24.01
2022-09-07T11:09:42.714Z,24.16
2022-09-07T11:12:16.518Z,24.35
2022-09-07T11:14:49.675Z,24.50
2022-09-07T11:17:23.437Z,24.61
2022-09-07T11:20:01.450Z,24.56
2022-09-07T11:22:40.889Z,24.63
2022-09-07T11:25:31.616Z,24.68
2022-09-07T11:28:22.429Z,24.77
2022-09-07T11:31:00.054Z,24.81
2022-09-07T11:33:33.473Z,24.80
2022-09-07T11:36:12.486Z,24.73
2022-09-07T11:38:45.510Z,24.67
2022-09-07T11:41:29.342Z,24.49
2022-09-07T11:43:58.190Z,24.36
2022-09-07T11:46:40.628Z,24.05
2022-09-07T11:49:33.540Z,23.85
2022-09-07T11:52:08.758Z,23.72
2022-09-07T11:54:51.028Z,23.67
2022-09-07T11:57:23.937Z,23.82
2022-09-07T12:00:17.676Z,23.84
2022-09-07T12:03:11.702Z,23.89
2022-09-07T12:05:59.940Z,23.66
2022-09-07T12:08:45.176Z,23.67
2022-09-07T12:11:40.223Z,23.60
2022-09-07T12:14:21.757Z,23.45
2022-09-07T12:17:09.662Z,23.59
2022-09-07T12:19:36.282Z,23.78
2022-09-07T12:22:02.864Z,23.96
2022-09-07T12:24:46.704Z,24.12
2022-09-07T12:27:22.068Z,24.19
2022-09-07T12:30:12.095Z,24.31
2022-09-07T12:32:55.631Z,24.12
2022-09-07T12:35:28.215Z,24.24
2022-09-07T12:37:56.275Z,24.22
2022-09-07T12:40:28.549Z,24.23
2022-09-07T12:43:12.981Z,24.25
2022-09-07T12:45:39.448Z,24.41
2022-09-07T12:48:14.832Z,24.59
2022-09-07T12:50:56.286Z,24.45
2022-09-07T12:53:34.777Z,24.51
2022-09-07T12:56:26.071Z,24.47
2022-09-07T12:59:19.506Z,24.35
2022-09-07T13:02:18.170Z,24.25
2022-09-07T13:05:00.811Z,24.07
2022-09-07T13:07:36.013Z,24.05
2022-09-07T13:10:05.339Z,24.23
2022-09-07T13:12:59.611Z,24.42
2022-09-07T13:15:33.651Z,24.43
2022-09-07T13:18:00.601Z,24.38
2022-09-07T13:20:34.797Z,24.34
2022-09-07T13:23:08.928Z,24.37
2022-09-07T13:25:38.040Z,24.34
2022-09-07T13:28:36.931Z,24.23
2022-09-07T13:31:32.195Z,24.00
2022-09-07T13:33:58.863Z,23.92
2022-09-07T13:36:45.107Z,23.92
2022-09-07T13:39:15.826Z,23.77
2022-09-07T13:41:49.383Z,23.83
2022-09-07T13:44:25.923Z,23.89
2022-09-07T13:47:17.870Z,24.18
2022-09-07T13:50:05.108Z,24.43
2022-09-07T13:52:48.077Z,24.38
2022-09-07T13:55:27.991Z,24.32
2022-09-07T13:58:04.597Z,24.21
2022-09-07T14:00:31.208Z,23.97
2022-09-07T14:03:04.837Z,23.81
2022-09-07T14:05:31.309Z,23.75
2022-09-07T14:07:57.703Z,23.82
2022-09-07T14:10:26.236Z,23.95
2022-09-07T14:13:14.156Z,24.00
2022-09-07T14:15:49.705Z,23.89
2022-09-07T14:18:31.036Z,23.96
2022-09-07T14:20:58.650Z,23.89
2022-09-07T14:23:29.828Z,23.81
2022-09-07T14:26:34.675Z,23.69
2022-09-07T14:29:01.451Z,23.59
2022-09-07T14:31:28.622Z,23.56
2022-09-07T14:33:57.616Z,23.61
2022-09-07T14:36:44.689Z,23.71
2022-09-07T14:39:12.804Z,23.67
2022-09-07T14:41:41.881Z,23.54
2022-09-07T14:44:31.113Z,23.54
2022-09-07T14:47:01.464Z,23.51
2022-09-07T14:49:28.865Z,23.54
2022-09-07T14:51:55.780Z,23.62
2022-09-07T14:54:31.709Z,23.72
2022-09-07T14:57:06.846Z,23.85
2022-09-07T14:59:45.470Z,23.93
2022-09-07T15:02:17.853Z,23.90
2022-09-07T15:04:49.790Z,23.77
2022-09-07T15:07:29.463Z,23.74
2022-09-07T15:09:55.982Z,23.76
2022-09-07T15:12:38.169Z,23.79
2022-09-07T15:15:34.419Z,23.82
2022-09-07T15:18:08.466Z,23.77
2022-09-07T15:20:44.207Z,23.80
2022-09-07T15:23:19.544Z,23.83
2022-09-07T15:25:53.451Z,23.84
2022-09-07T15:34:02.154Z,23.86
2022-09-07T15:36:28.792Z,23.91
2022-09-07T15:39:03.596Z,23.86
2022-09-07T15:41:30.145Z,23.79
2022-09-07T15:43:56.959Z,23.73
2022-09-07T15:46:25.048Z,23.70
2022-09-07T15:48:55.594Z,23.76
2022-09-07T15:54:13.979Z,23.81
2022-09-07T15:57:48.107Z,23.83
2022-09-07T15:59:31.101Z,23.84
2022-09-07T16:01:58.482Z,23.84
2022-09-07T16:04:25.454Z,23.84
2022-09-07T16:06:51.952Z,23.77
2022-09-07T16:09:21.755Z,23.71
2022-09-07T16:11:50.029Z,23.65
2022-09-07T16:14:18.621Z,23.56
2022-09-07T16:19:35.002Z,23.42
2022-09-07T16:22:02.002Z,23.38
2022-09-07T16:24:29.587Z,23.42
2022-09-07T16:26:56.793Z,23.40
2022-09-07T16:29:23.248Z,23.34
2022-09-07T16:34:36.316Z,23.32
2022-09-07T16:37:03.130Z,23.23
2022-09-07T16:39:29.549Z,23.23
2022-09-07T16:41:56.119Z,23.20
2022-09-07T16:44:23.119Z,23.20
2022-09-07T16:46:50.600Z,23.15
2022-09-07T16:49:17.642Z,23.15
2022-09-07T16:51:45.624Z,23.13
2022-09-07T16:54:13.569Z,23.09
2022-09-07T16:56:39.993Z,23.04
2022-09-07T16:59:08.519Z,22.93
2022-09-07T17:01:37.572Z,22.91
2022-09-07T17:04:09.632Z,22.90
2022-09-07T17:06:37.663Z,22.81
2022-09-07T17:09:04.412Z,22.74
2022-09-07T17:11:33.359Z,22.70
2022-09-07T17:14:01.116Z,22.64
2022-09-07T17:16:30.136Z,22.63
2022-09-07T17:21:46.432Z,22.50
2022-09-07T17:24:13.041Z,22.46
2022-09-07T17:26:42.332Z,22.39
2022-09-07T17:29:09.503Z,22.34
2022-09-07T17:34:23.752Z,22.26
2022-09-07T17:36:50.170Z,22.25
2022-09-07T17:39:18.438Z,22.19
2022-09-07T17:41:52.684Z,22.13
2022-09-07T17:44:19.468Z,22.06
2022-09-07T17:46:45.912Z,21.99
2022-09-07T17:49:14.284Z,21.92
2022-09-07T17:51:40.790Z,21.82
2022-09-07T17:54:11.730Z,21.75
2022-09-07T17:56:39.608Z,21.62
2022-09-07T18:01:53.877Z,21.45
2022-09-07T18:04:20.895Z,21.36
2022-09-07T18:06:47.410Z,21.25
2022-09-07T18:09:13.979Z,21.18
2022-09-07T18:11:47.306Z,21.15
2022-09-07T18:14:15.301Z,21.07
2022-09-07T18:16:43.795Z,21.00
2022-09-07T18:19:10.972Z,20.93
2022-09-07T18:21:38.128Z,20.89
2022-09-07T18:24:13.520Z,20.82
2022-09-07T18:26:40.983Z,20.79
2022-09-07T18:29:19.243Z,20.77
2022-09-07T18:31:54.685Z,20.72
2022-09-07T18:34:21.835Z,20.62
2022-09-07T18:36:48.460Z,20.56
2022-09-07T18:39:15.035Z,20.52
2022-09-07T18:41:42.015Z,20.47
2022-09-07T18:45:27.351Z,20.39
2022-09-07T18:46:55.328Z,20.30
2022-09-07T18:49:21.723Z,20.25
2022-09-07T18:54:34.827Z,20.19
2022-09-07T18:57:01.222Z,20.12
2022-09-07T18:59:28.113Z,20.06
2022-09-07T19:01:58.827Z,20.03
2022-09-07T19:05:49.458Z,19.95
2022-09-07T19:07:15.956Z,19.86
2022-09-07T19:09:42.351Z,19.80
2022-09-07T19:12:09.932Z,19.79
2022-09-07T19:14:36.352Z,19.73
2022-09-07T19:17:02.781Z,19.71
2022-09-07T19:19:29.151Z,19.67
2022-09-07T19:21:57.497Z,19.61
2022-09-07T19:24:23.965Z,19.54
2022-09-07T19:26:50.332Z,19.44
2022-09-07T19:29:18.340Z,19.39
2022-09-07T19:32:04.032Z,19.32
2022-09-07T19:34:35.669Z,19.28
2022-09-07T19:37:03.261Z,19.20
2022-09-07T19:39:29.720Z,19.13
2022-09-07T19:41:56.430Z,19.07
2022-09-07T19:44:22.962Z,19.02
2022-09-07T19:46:49.708Z,18.96
2022-09-07T19:49:16.180Z,18.93
2022-09-07T19:51:42.883Z,18.85
2022-09-07T19:54:10.438Z,18.77
2022-09-07T19:56:39.355Z,18.73
2022-09-07T19:59:06.521Z,18.67
2022-09-07T20:01:33.856Z,18.59
2022-09-07T20:04:03.285Z,18.53
2022-09-07T20:06:32.673Z,18.45
2022-09-07T20:09:01.168Z,18.42
2022-09-07T20:11:30.699Z,18.41
2022-09-07T20:13:57.206Z,18.38
2022-09-07T20:16:25.401Z,18.32
2022-09-07T20:18:51.903Z,18.28
2022-09-07T20:21:21.474Z,18.21
2022-09-07T20:23:48.451Z,18.15
2022-09-07T20:26:16.612Z,18.07
2022-09-07T20:28:43.655Z,18.03
2022-09-07T20:31:15.758Z,17.97
2022-09-07T20:33:43.371Z,17.91
2022-09-07T20:36:12.172Z,17.87
2022-09-07T20:38:44.040Z,17.81
2022-09-07T20:41:31.264Z,17.79
2022-09-07T20:43:59.318Z,17.72
2022-09-07T20:46:26.219Z,17.65
2022-09-07T20:48:52.741Z,17.60
2022-09-07T20:51:21.140Z,17.58
2022-09-07T20:53:49.171Z,17.58
2022-09-07T20:56:27.475Z,17.50
2022-09-07T20:59:00.604Z,17.43
2022-09-07T21:01:28.908Z,17.35
2022-09-07T21:03:57.895Z,17.33
2022-09-07T21:06:26.085Z,17.25
2022-09-07T21:08:52.476Z,17.24
2022-09-07T21:11:21.483Z,17.29
2022-09-07T21:13:54.070Z,17.25
2022-09-07T21:16:21.674Z,17.21
2022-09-07T21:18:53.677Z,17.21
2022-09-07T21:21:20.835Z,17.09
2022-09-07T21:23:47.819Z,17.03
2022-09-07T21:26:14.987Z,16.95
2022-09-07T21:28:41.412Z,16.95
2022-09-07T21:31:09.039Z,16.97
2022-09-07T21:33:37.200Z,16.98
2022-09-07T21:36:09.470Z,16.98
2022-09-07T21:38:37.731Z,16.89
2022-09-07T21:41:12.507Z,16.84
2022-09-07T21:43:39.304Z,16.86
2022-09-07T21:46:17.388Z,16.86
2022-09-07T21:48:46.789Z,16.84
2022-09-07T21:51:14.163Z,16.83
2022-09-07T21:53:40.992Z,16.83
2022-09-07T21:56:11.118Z,16.83
2022-09-07T21:58:37.645Z,16.80
2022-09-07T22:01:14.170Z,16.83
2022-09-07T22:03:40.770Z,16.86
2022-09-07T22:06:08.599Z,16.86
2022-09-07T22:08:36.082Z,16.88
2022-09-07T22:11:05.120Z,16.89
2022-09-07T22:13:31.610Z,16.88
2022-09-07T22:15:58.475Z,16.83
2022-09-07T22:18:25.001Z,16.82
2022-09-07T22:21:07.915Z,16.81
2022-09-07T22:23:37.736Z,16.82
2022-09-07T22:26:04.358Z,16.79
2022-09-07T22:28:31.958Z,16.81
2022-09-07T22:31:29.341Z,16.82
2022-09-07T22:33:57.230Z,16.81
2022-09-07T22:36:32.358Z,16.84
2022-09-07T22:39:01.170Z,16.86
2022-09-07T22:41:33.281Z,16.87
2022-09-07T22:44:00.128Z,16.86
2022-09-07T22:46:29.135Z,16.88
2022-09-07T22:48:59.004Z,16.86
2022-09-07T22:51:26.490Z,16.82
2022-09-07T22:53:53.899Z,16.77
2022-09-07T22:56:24.340Z,16.74
2022-09-07T22:58:53.778Z,16.74
2022-09-07T23:01:21.811Z,16.70
2022-09-07T23:03:49.080Z,16.65
2022-09-07T23:06:42.063Z,16.67
2022-09-07T23:09:11.332Z,16.63
2022-09-07T23:11:38.382Z,16.62
2022-09-07T23:14:07.675Z,16.61
2022-09-07T23:16:34.227Z,16.62
2022-09-07T23:19:01.343Z,16.63
2022-09-07T23:21:28.238Z,16.61
2022-09-07T23:23:57.159Z,16.62
2022-09-07T23:26:24.940Z,16.62
2022-09-07T23:28:52.935Z,16.64
2022-09-07T23:31:20.002Z,16.66
2022-09-07T23:33:46.580Z,16.66
2022-09-07T23:36:13.354Z,16.65
2022-09-07T23:38:39.760Z,16.66
2022-09-07T23:41:06.151Z,16.69
2022-09-07T23:43:32.765Z,16.71
2022-09-07T23:46:02.294Z,16.71
2022-09-07T23:48:28.775Z,16.69
2022-09-07T23:50:55.232Z,16.65
2022-09-07T23:53:22.327Z,16.65
2022-09-07T23:55:50.302Z,16.65
2022-09-07T23:58:17.602Z,16.65
